createdAt,value
2024-02-08T00:01:18.414Z,5.93
2024-02-08T00:03:45.304Z,5.70
2024-02-08T00:06:12.088Z,5.25
2024-02-08T00:08:39.192Z,7.10
2024-02-08T00:11:09.783Z,6.00
2024-02-08T00:13:36.693Z,5.95
2024-02-08T00:16:03.596Z,5.85
2024-02-08T00:18:30.435Z,5.32
2024-02-08T00:20:57.144Z,5.00
2024-02-08T00:23:23.906Z,6.45
2024-02-08T00:25:51.867Z,6.47
2024-02-08T00:28:18.682Z,6.07
2024-02-08T00:30:46.700Z,6.25
2024-02-08T00:33:13.763Z,6.38
2024-02-08T00:35:40.744Z,5.43
2024-02-08T00:38:07.993Z,5.47
2024-02-08T00:40:34.793Z,4.03
2024-02-08T00:43:07.344Z,5.75
2024-02-08T00:45:35.010Z,6.35
2024-02-08T00:48:02.627Z,6.60
2024-02-08T00:50:29.428Z,4.57
2024-02-08T00:52:56.277Z,4.70
2024-02-08T00:55:23.251Z,5.93
2024-02-08T00:57:50.010Z,5.32
2024-02-08T01:00:17.086Z,5.70
2024-02-08T01:02:45.111Z,6.45
2024-02-08T01:05:11.912Z,8.70
2024-02-08T01:07:39.400Z,6.65
2024-02-08T01:10:09.559Z,6.00
2024-02-08T01:12:36.247Z,6.28
2024-02-08T01:15:03.856Z,6.55
2024-02-08T01:17:30.704Z,5.82
2024-02-08T01:20:02.100Z,11.88
2024-02-08T01:25:10.739Z,7.25
2024-02-08T01:27:37.363Z,5.65
2024-02-08T01:30:08.873Z,5.07
2024-02-08T01:32:35.662Z,7.45
2024-02-08T01:35:02.341Z,7.50
2024-02-08T01:37:29.029Z,5.30
2024-02-08T01:39:55.810Z,6.13
2024-02-08T01:42:22.867Z,7.03
2024-02-08T01:45:01.156Z,7.30
2024-02-08T01:47:27.980Z,8.07
2024-02-08T01:49:54.726Z,6.25
2024-02-08T01:52:22.494Z,4.47
2024-02-08T01:54:50.676Z,7.78
2024-02-08T01:57:17.760Z,4.70
2024-02-08T01:59:54.174Z,5.68
2024-02-08T02:02:23.426Z,6.80
2024-02-08T02:04:50.323Z,5.63
2024-02-08T02:07:17.037Z,6.43
2024-02-08T02:09:43.957Z,5.28
2024-02-08T02:12:16.709Z,5.40
2024-02-08T02:14:45.942Z,5.20
2024-02-08T02:17:14.777Z,5.35
2024-02-08T02:19:42.359Z,4.28
2024-02-08T02:22:11.695Z,4.43
2024-02-08T02:24:41.721Z,5.90
2024-02-08T02:27:10.758Z,5.85
2024-02-08T02:29:39.874Z,6.32
2024-02-08T02:32:11.626Z,5.22
2024-02-08T02:34:43.064Z,4.25
2024-02-08T02:37:10.105Z,6.13
2024-02-08T02:39:37.982Z,4.47
2024-02-08T02:42:04.915Z,4.47
2024-02-08T02:44:31.580Z,4.05
2024-02-08T02:47:00.604Z,3.65
2024-02-08T02:49:30.088Z,4.95
2024-02-08T02:52:01.020Z,4.43
2024-02-08T02:54:32.019Z,7.15
2024-02-08T02:56:58.723Z,7.03
2024-02-08T02:59:27.874Z,5.63
2024-02-08T03:01:57.328Z,4.25
2024-02-08T03:04:24.754Z,4.13
2024-02-08T03:06:54.508Z,4.45
2024-02-08T03:09:24.790Z,4.28
2024-02-08T03:11:51.581Z,4.68
2024-02-08T03:14:20.689Z,4.15
2024-02-08T03:16:47.442Z,5.03
2024-02-08T03:19:14.493Z,4.97
2024-02-08T03:21:41.518Z,4.97
2024-02-08T03:24:12.009Z,4.15
2024-02-08T03:26:42.140Z,5.90
2024-02-08T03:29:12.884Z,6.40
2024-02-08T03:31:47.559Z,2.83
2024-02-08T03:34:20.903Z,4.78
2024-02-08T03:36:47.883Z,4.15
2024-02-08T03:39:27.322Z,5.43
2024-02-08T03:41:59.673Z,6.33
2024-02-08T03:44:31.182Z,4.70
2024-02-08T03:47:06.893Z,5.78
2024-02-08T03:49:34.039Z,3.97
2024-02-08T03:52:00.842Z,4.43
2024-02-08T03:54:31.562Z,3.72
2024-02-08T03:57:06.901Z,4.60
2024-02-08T03:59:34.328Z,4.57
2024-02-08T04:02:02.921Z,5.47
2024-02-08T04:05:01.439Z,5.00
2024-02-08T04:07:47.501Z,5.60
2024-02-08T04:10:21.182Z,6.70
2024-02-08T04:13:06.720Z,7.72
2024-02-08T04:16:08.510Z,6.88
2024-02-08T04:18:53.998Z,4.28
2024-02-08T04:21:39.083Z,5.50
2024-02-08T04:24:24.370Z,4.72
2024-02-08T04:27:09.313Z,6.13
2024-02-08T04:29:54.605Z,7.35
2024-02-08T04:32:40.086Z,6.97
2024-02-08T04:35:25.829Z,5.15
2024-02-08T04:38:11.581Z,5.13
2024-02-08T04:40:56.785Z,4.28
2024-02-08T04:43:41.736Z,3.72
2024-02-08T04:46:27.050Z,4.80
2024-02-08T04:49:12.305Z,6.13
2024-02-08T04:51:57.500Z,7.82
2024-02-08T04:54:24.145Z,4.00
2024-02-08T04:56:50.812Z,5.20
2024-02-08T04:59:23.473Z,5.10
2024-02-08T05:01:51.515Z,5.63
2024-02-08T05:04:20.221Z,6.88
2024-02-08T05:06:47.481Z,6.45
2024-02-08T05:09:20.971Z,6.32
2024-02-08T05:11:50.569Z,7.90
2024-02-08T05:14:20.843Z,4.57
2024-02-08T05:16:47.747Z,4.97
2024-02-08T05:19:15.660Z,4.95
2024-02-08T05:21:43.490Z,6.70
2024-02-08T05:24:14.539Z,5.05
2024-02-08T05:26:42.341Z,5.78
2024-02-08T05:29:20.488Z,4.68
2024-02-08T05:31:49.157Z,4.30
2024-02-08T05:34:18.487Z,5.47
2024-02-08T05:36:46.586Z,3.90
2024-02-08T05:39:26.202Z,4.20
2024-02-08T05:41:55.471Z,6.78
2024-02-08T05:44:22.358Z,6.68
2024-02-08T05:46:49.561Z,5.93
2024-02-08T05:49:17.051Z,5.40
2024-02-08T05:51:53.833Z,5.07
2024-02-08T05:54:38.234Z,6.13
2024-02-08T05:57:08.343Z,3.63
2024-02-08T05:59:38.801Z,4.97
2024-02-08T06:02:16.597Z,3.72
2024-02-08T06:04:52.444Z,5.35
2024-02-08T06:07:21.624Z,5.75
2024-02-08T06:09:49.399Z,4.97
2024-02-08T06:12:25.672Z,4.07
2024-02-08T06:14:59.702Z,4.45
2024-02-08T06:17:33.963Z,4.13
2024-02-08T06:20:10.885Z,5.75
2024-02-08T06:22:41.107Z,6.13
2024-02-08T06:25:29.200Z,7.73
2024-02-08T06:27:59.786Z,5.53
2024-02-08T06:30:32.425Z,6.28
2024-02-08T06:33:09.841Z,4.20
2024-02-08T06:35:37.477Z,8.43
2024-02-08T06:38:04.580Z,6.20
2024-02-08T06:40:50.219Z,4.22
2024-02-08T06:43:25.961Z,7.63
2024-02-08T06:45:54.627Z,7.25
2024-02-08T06:48:46.185Z,6.93
2024-02-08T06:51:31.613Z,4.45
2024-02-08T06:54:16.844Z,8.65
2024-02-08T06:57:01.853Z,4.25
2024-02-08T06:59:47.574Z,5.72
2024-02-08T07:02:33.081Z,6.20
2024-02-08T07:05:18.198Z,5.75
2024-02-08T07:08:03.631Z,5.05
2024-02-08T07:10:49.036Z,5.38
2024-02-08T07:13:34.715Z,8.50
2024-02-08T07:16:20.260Z,6.38
2024-02-08T07:19:07.807Z,5.88
2024-02-08T07:21:54.802Z,7.22
2024-02-08T07:24:40.491Z,5.55
2024-02-08T07:27:25.571Z,5.85
2024-02-08T07:30:10.557Z,6.07
2024-02-08T07:32:56.082Z,9.35
2024-02-08T07:35:41.586Z,6.05
2024-02-08T07:38:09.010Z,9.00
2024-02-08T07:40:38.855Z,7.32
2024-02-08T07:43:14.913Z,10.27
2024-02-08T07:46:05.385Z,10.18
2024-02-08T07:48:45.008Z,6.07
2024-02-08T07:51:17.071Z,8.18
2024-02-08T07:53:52.726Z,6.40
2024-02-08T07:56:33.117Z,9.07
2024-02-08T07:59:05.600Z,5.28
2024-02-08T08:01:40.351Z,9.45
2024-02-08T08:04:11.753Z,8.68
2024-02-08T08:06:51.879Z,6.03
2024-02-08T08:09:22.941Z,5.60
2024-02-08T08:11:53.314Z,6.53
2024-02-08T08:14:39.100Z,9.00
2024-02-08T08:17:25.053Z,7.63
2024-02-08T08:19:51.763Z,7.03
2024-02-08T08:22:41.549Z,6.05
2024-02-08T08:25:13.625Z,6.78
2024-02-08T08:28:00.604Z,7.18
2024-02-08T08:30:32.618Z,8.10
2024-02-08T08:33:06.798Z,5.72
2024-02-08T08:35:47.362Z,6.78
2024-02-08T08:38:21.012Z,7.15
2024-02-08T08:40:49.704Z,8.52
2024-02-08T08:43:21.993Z,8.80
2024-02-08T08:45:53.062Z,9.50
2024-02-08T08:50:58.936Z,13.27
2024-02-08T08:53:29.390Z,8.85
2024-02-08T08:55:57.248Z,8.18
2024-02-08T08:58:40.458Z,7.40
2024-02-08T09:01:19.490Z,11.55
2024-02-08T09:03:57.457Z,7.57
2024-02-08T09:06:27.501Z,6.93
2024-02-08T09:08:57.966Z,8.63
2024-02-08T09:11:26.368Z,6.13
2024-02-08T09:13:53.875Z,7.65
2024-02-08T09:16:23.845Z,7.65
2024-02-08T09:19:01.711Z,8.45
2024-02-08T09:21:34.029Z,8.27
2024-02-08T09:24:06.031Z,12.45
2024-02-08T09:26:52.437Z,8.23
2024-02-08T09:29:30.218Z,9.15
2024-02-08T09:34:41.386Z,10.02
2024-02-08T09:37:09.665Z,11.38
2024-02-08T09:39:55.220Z,15.48
2024-02-08T09:42:30.567Z,6.70
2024-02-08T09:45:15.010Z,8.65
2024-02-08T09:47:53.294Z,8.82
2024-02-08T09:50:32.406Z,8.43
2024-02-08T09:53:08.787Z,11.75
2024-02-08T09:55:35.836Z,13.45
2024-02-08T09:58:06.085Z,10.90
2024-02-08T10:00:56.151Z,10.23
2024-02-08T10:03:33.593Z,13.40
2024-02-08T10:06:13.675Z,10.70
2024-02-08T10:08:52.480Z,11.63
2024-02-08T10:11:25.897Z,13.10
2024-02-08T10:14:03.817Z,9.65
2024-02-08T10:16:32.316Z,11.20
2024-02-08T10:19:05.058Z,11.48
2024-02-08T10:21:37.407Z,11.90
2024-02-08T10:24:26.763Z,10.70
2024-02-08T10:27:00.269Z,11.70
2024-02-08T10:29:32.944Z,14.85
2024-02-08T10:32:01.251Z,13.95
2024-02-08T10:34:35.373Z,10.60
2024-02-08T10:37:05.475Z,19.40
2024-02-08T10:39:33.635Z,10.60
2024-02-08T10:42:03.055Z,13.40
2024-02-08T10:44:34.686Z,6.77
2024-02-08T10:47:09.895Z,16.42
2024-02-08T10:49:53.283Z,8.93
2024-02-08T10:52:22.724Z,9.25
2024-02-08T10:54:54.013Z,11.90
2024-02-08T10:57:40.403Z,10.25
2024-02-08T11:00:36.783Z,9.57
2024-02-08T11:03:41.214Z,13.77
2024-02-08T11:06:30.812Z,11.75
2024-02-08T11:09:15.765Z,12.10
2024-02-08T11:11:47.541Z,10.05
2024-02-08T11:14:21.103Z,11.45
2024-02-08T11:16:52.871Z,12.23
2024-02-08T11:19:21.355Z,9.45
2024-02-08T11:21:50.983Z,12.10
2024-02-08T11:24:39.958Z,12.23
2024-02-08T11:27:07.126Z,11.98
2024-02-08T11:29:46.781Z,11.65
2024-02-08T11:32:18.656Z,6.68
2024-02-08T11:34:47.350Z,8.95
2024-02-08T11:37:20.246Z,14.35
2024-02-08T11:39:58.819Z,11.60
2024-02-08T11:42:32.878Z,10.38
2024-02-08T11:45:02.021Z,12.68
2024-02-08T11:47:29.883Z,10.80
2024-02-08T11:50:05.931Z,12.35
2024-02-08T11:52:35.108Z,12.40
2024-02-08T11:55:07.406Z,13.20
2024-02-08T11:57:41.966Z,12.07
2024-02-08T12:00:19.968Z,16.42
2024-02-08T12:03:11.314Z,12.18
2024-02-08T12:05:39.624Z,10.32
2024-02-08T12:08:12.630Z,10.88
2024-02-08T12:10:43.056Z,10.07
2024-02-08T12:13:15.171Z,11.52
2024-02-08T12:15:50.845Z,11.43
2024-02-08T12:18:19.614Z,8.85
2024-02-08T12:20:46.532Z,10.93
2024-02-08T12:23:17.857Z,8.57
2024-02-08T12:25:44.768Z,10.23
2024-02-08T12:28:12.668Z,9.80
2024-02-08T12:30:42.188Z,9.73
2024-02-08T12:33:12.031Z,9.52
2024-02-08T12:35:44.310Z,9.00
2024-02-08T12:38:13.190Z,8.30
2024-02-08T12:40:40.933Z,9.73
2024-02-08T12:43:09.846Z,10.27
2024-02-08T12:45:39.295Z,8.93
2024-02-08T12:48:09.532Z,10.93
2024-02-08T12:50:39.211Z,8.88
2024-02-08T12:53:14.735Z,6.20
2024-02-08T12:55:41.813Z,10.93
2024-02-08T12:58:14.801Z,7.57
2024-02-08T13:00:46.378Z,9.82
2024-02-08T13:03:13.324Z,5.68
2024-02-08T13:05:41.597Z,7.03
2024-02-08T13:08:17.786Z,7.38
2024-02-08T13:10:55.903Z,7.63
2024-02-08T13:13:27.164Z,7.60
2024-02-08T13:16:00.848Z,4.95
2024-02-08T13:18:31.066Z,6.20
2024-02-08T13:21:01.683Z,7.68
2024-02-08T13:25:59.356Z,8.32
2024-02-08T13:28:26.521Z,7.13
2024-02-08T13:30:54.529Z,5.93
2024-02-08T13:33:21.889Z,9.10
2024-02-08T13:35:49.114Z,7.22
2024-02-08T13:38:22.804Z,6.53
2024-02-08T13:41:00.878Z,8.98
2024-02-08T13:43:32.096Z,10.75
2024-02-08T13:46:02.100Z,7.68
2024-02-08T13:48:30.792Z,8.18
2024-02-08T13:50:59.346Z,8.60
2024-02-08T13:53:29.614Z,6.03
2024-02-08T13:55:56.862Z,5.20
2024-02-08T13:58:27.162Z,8.85
2024-02-08T14:03:24.793Z,5.00
2024-02-08T14:05:53.822Z,6.18
2024-02-08T14:08:25.413Z,10.35
2024-02-08T14:10:52.884Z,8.55
2024-02-08T14:13:31.183Z,6.35
2024-02-08T14:16:02.288Z,8.48
2024-02-08T14:21:02.609Z,6.50
2024-02-08T14:23:50.167Z,5.68
2024-02-08T14:26:19.970Z,9.40
2024-02-08T14:28:50.571Z,9.53
2024-02-08T14:33:48.605Z,13.95
2024-02-08T14:36:19.709Z,27.10
2024-02-08T14:38:47.427Z,28.50
2024-02-08T14:41:27.941Z,25.30
2024-02-08T14:44:07.557Z,21.77
2024-02-08T14:46:42.042Z,15.93
2024-02-08T14:49:28.187Z,9.25
2024-02-08T14:52:03.927Z,10.35
2024-02-08T14:54:31.647Z,12.13
2024-02-08T14:57:11.285Z,9.13
2024-02-08T14:59:52.727Z,9.07
2024-02-08T15:02:23.970Z,15.23
2024-02-08T15:04:55.790Z,9.00
2024-02-08T15:07:50.392Z,7.78
2024-02-08T15:10:22.640Z,7.85
2024-02-08T15:12:54.240Z,4.78
2024-02-08T15:15:31.772Z,5.75
2024-02-08T15:18:16.105Z,6.15
2024-02-08T15:20:48.467Z,5.57
2024-02-08T15:23:49.495Z,8.85
2024-02-08T15:26:26.397Z,4.85
2024-02-08T15:28:58.175Z,6.45
2024-02-08T15:31:41.121Z,5.95
2024-02-08T15:34:18.062Z,7.40
2024-02-08T15:36:49.244Z,7.60
2024-02-08T15:39:44.171Z,5.45
2024-02-08T15:42:11.693Z,6.63
2024-02-08T15:44:46.653Z,7.15
2024-02-08T15:47:14.174Z,5.57
2024-02-08T15:49:43.810Z,5.97
2024-02-08T15:52:17.567Z,7.40
2024-02-08T15:54:46.180Z,4.20
2024-02-08T15:57:14.306Z,4.50
2024-02-08T15:59:47.873Z,5.95
2024-02-08T16:02:18.675Z,4.43
2024-02-08T16:04:51.529Z,5.60
2024-02-08T16:07:21.498Z,4.57
2024-02-08T16:09:58.995Z,4.53
2024-02-08T16:12:32.787Z,5.85
2024-02-08T16:15:06.581Z,4.88
2024-02-08T16:17:36.456Z,5.97
2024-02-08T16:20:17.853Z,4.93
2024-02-08T16:22:56.780Z,5.72
2024-02-08T16:25:44.818Z,6.55
2024-02-08T16:28:21.753Z,5.20
2024-02-08T16:30:59.308Z,6.68
2024-02-08T16:33:43.381Z,5.25
2024-02-08T16:36:28.750Z,5.13
2024-02-08T16:39:32.913Z,6.07
2024-02-08T16:42:02.884Z,5.50
2024-02-08T16:44:31.460Z,8.15
2024-02-08T16:47:01.229Z,6.88
2024-02-08T16:49:31.887Z,6.47
2024-02-08T16:52:05.387Z,5.88
2024-02-08T16:54:32.590Z,6.20
2024-02-08T16:56:59.250Z,4.97
2024-02-08T16:59:29.749Z,7.13
2024-02-08T17:02:13.311Z,5.22
2024-02-08T17:05:03.398Z,6.82
2024-02-08T17:07:45.343Z,4.38
2024-02-08T17:10:23.793Z,5.85
2024-02-08T17:13:11.315Z,6.47
2024-02-08T17:16:00.870Z,5.15
2024-02-08T17:18:35.197Z,5.15
2024-02-08T17:21:16.561Z,5.07
2024-02-08T17:23:44.390Z,7.15
2024-02-08T17:26:28.004Z,7.22
2024-02-08T17:29:08.420Z,7.35
2024-02-08T17:31:43.406Z,5.68
2024-02-08T17:34:11.728Z,5.63
2024-02-08T17:36:45.189Z,8.20
2024-02-08T17:39:13.144Z,7.18
2024-02-08T17:41:41.421Z,5.35
2024-02-08T17:44:08.109Z,6.50
2024-02-08T17:46:39.745Z,7.13
2024-02-08T17:49:06.992Z,6.35
2024-02-08T17:51:39.218Z,5.15
2024-02-08T17:54:09.527Z,5.10
2024-02-08T17:56:43.176Z,5.63
2024-02-08T17:59:16.597Z,6.18
2024-02-08T18:01:55.851Z,5.57
2024-02-08T18:04:29.417Z,7.30
2024-02-08T18:07:09.223Z,5.88
2024-02-08T18:09:40.973Z,7.70
2024-02-08T18:12:14.123Z,4.63
2024-02-08T18:14:45.152Z,7.63
2024-02-08T18:19:52.830Z,6.57
2024-02-08T18:22:30.228Z,5.90
2024-02-08T18:24:59.542Z,5.22
2024-02-08T18:27:33.821Z,6.78
2024-02-08T18:30:01.864Z,6.20
2024-02-08T18:32:30.674Z,6.25
2024-02-08T18:35:03.279Z,5.72
2024-02-08T18:37:30.282Z,5.97
2024-02-08T18:39:57.375Z,7.28
2024-02-08T18:42:28.519Z,6.10
2024-02-08T18:44:56.803Z,7.55
2024-02-08T18:47:30.137Z,6.05
2024-02-08T18:49:58.795Z,5.45
2024-02-08T18:52:25.827Z,6.47
2024-02-08T18:54:56.554Z,6.15
2024-02-08T18:57:27.172Z,9.07
2024-02-08T19:02:25.676Z,6.32
2024-02-08T19:04:53.037Z,5.90
2024-02-08T19:07:20.794Z,6.22
2024-02-08T19:09:50.897Z,6.82
2024-02-08T19:12:19.466Z,6.07
2024-02-08T19:14:49.027Z,7.55
2024-02-08T19:17:20.607Z,7.30
2024-02-08T19:19:47.800Z,8.30
2024-02-08T19:22:17.139Z,7.00
2024-02-08T19:24:44.092Z,6.70
2024-02-08T19:27:14.802Z,8.38
2024-02-08T19:29:42.464Z,6.53
2024-02-08T19:32:10.211Z,7.25
2024-02-08T19:34:43.273Z,7.47
2024-02-08T19:37:13.302Z,6.13
2024-02-08T19:39:42.562Z,6.68
2024-02-08T19:42:19.954Z,9.45
2024-02-08T19:44:54.043Z,6.88
2024-02-08T19:47:28.666Z,8.10
2024-02-08T19:50:06.557Z,6.15
2024-02-08T19:52:45.957Z,7.53
2024-02-08T19:55:22.563Z,9.23
2024-02-08T19:57:54.163Z,11.13
2024-02-08T20:00:23.451Z,10.07
2024-02-08T20:02:53.842Z,8.00
2024-02-08T20:05:24.193Z,7.97
2024-02-08T20:07:51.981Z,9.23
2024-02-08T20:10:20.529Z,9.65
2024-02-08T20:12:47.632Z,6.78
2024-02-08T20:15:19.189Z,7.90
2024-02-08T20:17:50.745Z,8.40
2024-02-08T20:20:21.133Z,8.18
2024-02-08T20:22:53.632Z,12.32
2024-02-08T20:25:34.532Z,10.95
2024-02-08T20:28:07.609Z,10.52
2024-02-08T20:30:36.984Z,8.48
2024-02-08T20:33:06.208Z,9.75
2024-02-08T20:35:33.275Z,9.23
2024-02-08T20:38:03.889Z,7.45
2024-02-08T20:40:31.110Z,9.23
2024-02-08T20:43:00.624Z,9.90
2024-02-08T20:45:28.578Z,13.23
2024-02-08T20:47:55.456Z,8.05
2024-02-08T20:50:22.977Z,10.82
2024-02-08T20:52:51.096Z,12.88
2024-02-08T20:55:33.061Z,11.48
2024-02-08T20:57:59.854Z,11.18
2024-02-08T21:00:31.282Z,12.82
2024-02-08T21:02:59.347Z,10.73
2024-02-08T21:05:28.629Z,7.97
2024-02-08T21:07:58.358Z,12.98
2024-02-08T21:10:27.367Z,11.07
2024-02-08T21:12:54.326Z,11.52
2024-02-08T21:15:24.306Z,14.25
2024-02-08T21:17:51.257Z,21.15
2024-02-08T21:20:18.188Z,20.05
2024-02-08T21:22:47.795Z,14.13
2024-02-08T21:25:16.909Z,18.77
2024-02-08T21:27:45.743Z,12.40
2024-02-08T21:30:13.751Z,12.45
2024-02-08T21:32:41.961Z,12.40
2024-02-08T21:35:15.431Z,14.30
2024-02-08T21:37:42.315Z,15.80
2024-02-08T21:40:09.435Z,12.30
2024-02-08T21:42:36.376Z,12.60
2024-02-08T21:45:04.147Z,10.77
2024-02-08T21:47:30.854Z,12.55
2024-02-08T21:49:57.470Z,13.48
2024-02-08T21:52:24.868Z,12.25
2024-02-08T21:54:51.525Z,14.18
2024-02-08T21:57:18.202Z,10.57
2024-02-08T21:59:44.962Z,12.18
2024-02-08T22:02:11.846Z,12.30
2024-02-08T22:04:39.701Z,13.15
2024-02-08T22:07:09.856Z,11.88
2024-02-08T22:09:37.001Z,12.50
2024-02-08T22:12:05.502Z,11.13
2024-02-08T22:14:32.476Z,13.07
2024-02-08T22:17:02.012Z,12.48
2024-02-08T22:19:36.563Z,11.48
2024-02-08T22:22:03.378Z,14.15
2024-02-08T22:24:30.277Z,13.35
2024-02-08T22:26:59.056Z,11.82
2024-02-08T22:29:28.635Z,12.10
2024-02-08T22:31:57.218Z,13.70
2024-02-08T22:34:24.242Z,15.25
2024-02-08T22:36:51.077Z,13.50
2024-02-08T22:39:18.195Z,14.18
2024-02-08T22:41:48.893Z,13.07
2024-02-08T22:44:15.796Z,11.70
2024-02-08T22:46:44.471Z,14.55
2024-02-08T22:49:14.872Z,10.95
2024-02-08T22:51:45.136Z,11.80
2024-02-08T22:54:12.708Z,13.20
2024-02-08T22:56:42.438Z,11.38
2024-02-08T22:59:10.937Z,18.13
2024-02-08T23:01:39.500Z,12.95
2024-02-08T23:04:10.780Z,13.05
2024-02-08T23:06:38.845Z,12.60
2024-02-08T23:09:09.102Z,13.07
2024-02-08T23:11:36.586Z,12.52
2024-02-08T23:14:04.115Z,12.30
2024-02-08T23:16:32.620Z,9.73
2024-02-08T23:19:02.908Z,11.32
2024-02-08T23:21:32.401Z,13.45
2024-02-08T23:24:08.585Z,15.82
2024-02-08T23:26:37.426Z,11.57
2024-02-08T23:29:05.120Z,13.38
2024-02-08T23:31:37.206Z,14.73
2024-02-08T23:34:04.734Z,10.18
2024-02-08T23:36:35.666Z,12.32
2024-02-08T23:41:32.404Z,11.05
2024-02-08T23:43:59.199Z,13.75
2024-02-08T23:46:26.219Z,11.88
2024-02-08T23:48:56.505Z,12.48
2024-02-08T23:51:23.388Z,11.57
2024-02-08T23:53:55.423Z,11.35
2024-02-08T23:56:25.348Z,11.88
2024-02-08T23:58:53.284Z,14.00
